Kulm, North Dakota
Current Conditions -  °F | °C
As of 3:56 AM on Saturday 22 Nov 2014 (Local Time) from KJMS Reporting Station
Clear Clear  
Wind Chill: 23°   Ceiling: Unl
Heat Index: 30°   Visibility: 10mi
Dew Point: 24°   Wind: 7mph
Humidity: 79%   Direction: 240°WSW
Pressure: 29.63"   Gusts: NA
Location:  46.3°N, 98.95°W
Report Text: KJMS 220956Z AUTO 24006KT 10SM CLR M01/M04 A2963 RMK AO2 SLP048 T10111044
Loading
Personal Weather Stations






























Interactive Weather Map New forecast layout! Learn more

10-Day Weather Forecast

Advertisements
Track Severe Weather on mobile